Elberfeld, IN

6:45 AM CST on January 18, 2017 (GMT -0600)
Summer Creek | | Change Station
Active Advisory: Flood Warning

Elev 387 ft 37.97 °N, 87.37 °W | Updated 46 seconds ago

Overcast
Overcast
40.2 °F
Feels Like 40 °F
N
1.0
Wind Variable Wind from NNW
Gusts 5.0 mph

Today
High -- | Low -- °F
--% Chance of Precip.
Yesterday
High -- | Low -- °F
Precip. -- in
Pressure 30.22 in
Visibility 10.0 miles
Clouds Overcast 1200 ft
Windchill 40 °F
Dew Point 36 °F
Humidity 86%
Rainfall 0.00 in
Snow Depth Not available.
7:03 AM 4:57 PM
Waning Gibbous, 63% visible
METAR KEVV 181154Z 31004KT 10SM OVC012 04/02 A3022 RMK AO2 SLP234 60000 T00440017 10067 20044 53009
Pressure 30.22 in
Visibility 10.0 miles
Clouds Overcast 1200 ft
Windchill 40 °F
Dew Point 36 °F
Humidity 86%
Rainfall 0.00 in
Snow Depth Not available.
7:03 AM 4:57 PM
Waning Gibbous, 63% visible
METAR KEVV 181154Z 31004KT 10SM OVC012 04/02 A3022 RMK AO2 SLP234 60000 T00440017 10067 20044 53009

Get Your Daily Forecast Email!

Thanks for signing up!

Be on the lookout for a verification email in your inbox.

You'll start receiving the daily forecast at 8 AM.

×

10-Day Weather Forecast

Almanac

Astronomy

Jan. 18, 2017 Rise Set
Actual Time
Civil Twilight
Nautical Twilight
Astronomical Twilight
Moon
Length of Visible Light
Length of Day
Tomorrow will be .
, % of the Moon is Illuminated

Today's Extremes

State Highs State Lows

Community

WunderPhotos

Upload Photos

1,962,540 photos uploaded!

WunderBlog® & News

Nearby

Air Quality

  Air Quality AQ Index Pollutant
Not available.

Snow Depth

Station Depth Elevation

Earthquake Activity

City Distance Mag. Time & Date
Minimum magnitude displayed is 2.5.

Coastal Water Temperatures

Place Temperature

Stations

Nearby Weather Stations

Station Location Temp. Windchill Dew Point Humidity Wind Precip. Elev Updated Type
                   

Watches & Warnings

Flood Warning
Issued: 10:31 PM CST Jan. 17, 2017 – National Weather Service

The Flood Warning continues for
the Ohio River at Newburgh dam
* from late Wednesday night until Tuesday January 24.
* At 10:00 PM Tuesday the stage was 36.8 feet.
* Flood stage is 38.0 feet.
* Forecast... the river will rise above flood stage overnight
Wednesday and crest near 40.7 feet by Saturday morning.
* Minor flooding is forecast.



Lat... Lon 3801 8745 3787 8745 3780 8728 3790 8721